events-overview

Kinetic Sprint

 

Overall Men

Lake Anna State Park - Spotsylvania, VA 5/12/2013 09:00AM

** Results are for the private use of participants and are the Intellectual Property of Set Up Events. Unauthorized use of these results is prohibited.

Place Bib Ag S NAME city/state DQ Rank SWIM Rank T1 Rank Bike Rank T2 Rank RUN PENALTY TIME DQ
1116MStone DysonRichmond VA 100:10:01500:01:17800:41:10100:00:33600:18:12 01:11:12 
257524MParker SpencerRichmond VA 1400:11:54400:01:16400:40:471100:00:39400:17:47 01:12:21 
351839MAndrew LipscombAlexandria VA 1600:12:011500:01:44200:40:153500:00:52200:17:43 01:12:33 
419631MGregory LindquistArlington VA 2400:12:181900:01:45600:41:025900:00:58800:18:44 01:14:45 
550327MMatthew PughChesterfield VA 2700:12:281000:01:36700:41:041900:00:441000:19:39 01:15:29 
64422MBobby StanleyBerryville VA 2000:12:071400:01:412400:43:47400:00:37300:17:44 01:15:55 
755833MScott YatesWashington DC 2100:12:092500:01:50100:40:0610100:01:062700:20:56 01:16:05 
847331MZachary BrittonWashington DC 800:11:121100:01:364600:45:154000:00:53500:18:07 01:17:03 
953436MAlan MossKing George VA 900:11:316000:02:12500:40:5414300:01:165300:21:56 01:17:46 
1064244MSean PierceAlexandria VA 10100:14:379800:02:29300:40:204700:00:551100:19:39 01:17:58 
1148134MSebastian De La CuevaArlington VA 3000:12:34800:01:281900:43:311200:00:401200:19:56 01:18:07 
1212035MPhil ReutlingerAlexandria VA 4200:13:0510700:02:333300:44:295200:00:57100:17:26 01:18:28 
1338831MBenjamin GreenNew York NY 4100:13:021200:01:391200:41:53500:00:374000:21:26 01:18:36 
1414251MDolan SullivanAlexandria VA 1200:11:457400:02:213100:44:223900:00:531800:20:17 01:19:36 
1545718MDaniel McAllisterLeesburg VA 400:10:362000:01:463600:44:40600:00:386500:22:13 01:19:52 
1629626MJoe KrasinskasVienna VA 2500:12:192400:01:501800:43:2816100:01:202800:21:02 01:19:56 
175650MEric MackemReston VA 5200:13:186800:02:161500:42:378000:01:033300:21:09 01:20:20 
1837638MMichael SkeeleArlington VA 300:10:334700:02:042500:43:559500:01:058800:22:46 01:20:20 
1957330MAndrew CallihanRichmond VA 9900:14:326100:02:12900:41:224100:00:544300:21:27 01:20:24 
2024727MJames ParkerArlington VA 3500:12:466400:02:146500:46:127100:01:00700:18:43 01:20:53 
2133627MJohn ClossArlington VA 200:10:108300:02:255000:45:3517000:01:214200:21:27 01:20:55 
2246439MBrandon BruckerVienna VA 15500:15:5010000:02:301300:42:175400:00:571300:20:00 01:21:32 
2346954MAlan DixonWashington DC 8100:14:059200:02:271000:41:467700:01:018900:22:46 01:22:04 
2448227MEric RobinsonArlington VA 5000:13:161300:01:405200:45:421500:00:412600:20:53 01:22:10 
2545428MSean FishWashington DC 2600:12:2317100:03:094100:44:5918100:01:232300:20:33 01:22:26 
2660046MRob PriceFairfax VA 1300:11:477800:02:223800:44:467000:01:008300:22:41 01:22:34 
2742933MCharles ShepardStaunton VA 9400:14:215100:02:061700:43:2726900:01:572500:20:53 01:22:42 
2827423MThomas GallantWashington DC 8000:14:045700:02:091600:43:1414800:01:186400:22:08 01:22:51 
2933752MJeff BowersAshburn VA 12500:15:099700:02:292000:43:319700:01:062400:20:47 01:23:00 
3015243MMatt WitlinOak Hill VA 3300:12:3913100:02:465100:45:395500:00:573100:21:05 01:23:05 
PlaceBibAgSNAMEcity/stateDQRankSWIMRankT1RankBikeRankT2RankRUNPENALTYTIMEDQ
3151246MBaucum FulkCharlottesville VA 7900:14:044500:02:033000:44:222700:00:485400:21:56 01:23:11 
3236329MBrian SmithReston VA 700:11:106300:02:135600:45:572900:00:499700:23:08 01:23:14 
3357241MKevin GreenGaithersburg MD 11900:15:044800:02:041400:42:328700:01:047900:22:36 01:23:17 
3462347MDarin SladeFalls Church VA 7300:13:5413300:02:482200:43:404300:00:546000:22:06 01:23:19 
3562436MElliott LaneWashington DC 4600:13:124400:02:031100:41:465300:00:5719400:25:42 01:23:38 
3636243MBenjamin MeredithLinville VA 9300:14:204100:02:014000:44:547400:01:013900:21:26 01:23:40 
3750248MMark LevyOwings Mills MD 4000:12:5716100:03:033400:44:3711900:01:105200:21:55 01:23:40 
3810125MGreg SchleifmanArlington VA 2300:12:177900:02:238300:46:5710800:01:083400:21:14 01:23:56 
3940533MAndrew MerrittCulpeper VA 17900:16:2816000:03:032800:44:1514000:01:15900:19:09 01:24:08 
407744MYuichiro EndoNorfolk VA 6600:13:413500:01:596600:46:172500:00:485000:21:44 01:24:28 
4142333MDavid NicholsonWashington DC 12900:15:1910200:02:313700:44:434900:00:563200:21:05 01:24:32 
4259549MChristopher VaughanWashington DC 1500:11:5410800:02:333500:44:3820300:01:2812900:24:08 01:24:40 
4356017MJake KendrickManassas VA 500:11:068000:02:2312600:48:236100:00:596600:22:13 01:25:01 
4459126MBrandon HendricksonKing George VA 1700:12:033400:01:579100:47:1813100:01:127500:22:33 01:25:01 
4565327MJason StephensBumpass VA 15700:15:532300:01:492700:44:046200:00:596900:22:21 01:25:03 
4644454MDave MillerFrederick MD 10200:14:3914100:02:524700:45:253300:00:523700:21:22 01:25:09 
4755334MAdam KitayWashington DC 5600:13:302600:01:516900:46:253800:00:538100:22:41 01:25:18 
4848837MJustin PierceWoodbridge VA 12600:15:165800:02:113900:44:5324400:01:424500:21:34 01:25:34 
4912539MRobert SmolichArlington VA 13400:15:2412700:02:435800:46:018200:01:032100:20:25 01:25:34 
5029345MMike KirschNewport News VA 4700:13:132900:01:522100:43:326300:00:5920700:26:06 01:25:41 
5143840MEric RodkinChevy Chase MD 15100:15:477700:02:226000:46:0518400:01:232000:20:17 01:25:52 
5265034MShaun RooneyNewport News VA 7000:13:4712900:02:457200:46:4513800:01:153800:21:24 01:25:54 
5317460MStephen GodwinBethesda MD 6100:13:3713700:02:504400:45:1221100:01:309100:22:52 01:26:00 
545047MJohn CaldwellRichmond VA 8200:14:073200:01:5410000:47:292000:00:456200:22:07 01:26:20 
5549432MJonathan WilliamsonManassas VA 6900:13:452100:01:4713200:48:351400:00:414900:21:41 01:26:26 
5657829MJorge RamosMexico XX 8900:14:147500:02:218800:47:1612800:01:124100:21:26 01:26:27 
5734925MZach BirnbaumWashington DC 7200:13:529600:02:294300:45:0518300:01:2311500:23:48 01:26:35 
5858622MKeith MacDonaldNewport News VA 13700:15:247100:02:185700:45:5928300:02:042900:21:02 01:26:45 
5911529MJon StewartCharlottesville VA 5900:13:365200:02:068400:46:588400:01:039500:23:06 01:26:48 
6052033MBrett GombarBlacksburg VA 1000:11:325300:02:0813900:48:538800:01:0410400:23:20 01:26:54 
6137226MStafford CraymerVirginia Beach VA 7600:14:011700:01:4411100:47:501600:00:428200:22:41 01:26:57 
PlaceBibAgSNAMEcity/stateDQRankSWIMRankT1RankBikeRankT2RankRUNPENALTYTIMEDQ
6238540MTim WalkawiczNorfolk VA 1800:12:0523200:03:504800:45:2810500:01:0716200:24:50 01:27:18 
63847MDaniel AndersonRockville MD 5400:13:2825500:04:125500:45:5217200:01:217600:22:33 01:27:24 
6443531MSteven VadnaisArlington VA 21500:17:262200:01:484500:45:15300:00:357700:22:35 01:27:37 
6530439MDavid Callaway JrStafford VA 7400:13:545600:02:097100:46:288500:01:0312500:24:05 01:27:39 
6660235MBrandon SmithRichmond VA 7700:14:025500:02:084200:45:0414600:01:1717500:25:11 01:27:39 
6712446MThom MukriWoodbridge VA 14700:15:432800:01:528000:46:552100:00:457800:22:36 01:27:48 
687045MDave KayeaAnnapolis MD 9200:14:1911400:02:356400:46:1112000:01:1011700:23:51 01:28:05 
6930936MAndrew JonesArlington VA 22700:17:519100:02:272300:43:4011500:01:0910100:23:15 01:28:21 
708151MGreg TuckMechanicsville VA 16400:16:088100:02:2410700:47:424800:00:563600:21:17 01:28:24 
7113937MChad SearleArlington VA 14900:15:446900:02:177400:46:475000:00:568400:22:44 01:28:26 
7251932MPatrick BurnsArlington VA 6800:13:448500:02:269400:47:2028800:02:109000:22:52 01:28:31 
7356426MThomas ImronFairfax VA 2800:12:304600:02:0414200:49:018300:01:0313900:24:20 01:28:55 
7422525MKurt GibelCentreville VA 6700:13:423100:01:543200:44:247600:01:0124700:27:58 01:28:57 
7549333MDerek KasseAshburn VA 7500:14:009500:02:2812200:48:169100:01:0510000:23:12 01:28:59 
7625940MJohn StannFpo XX 14300:15:4013900:02:529700:47:239800:01:065900:22:03 01:29:02 
7747541MChad RicknerChesapeake VA 24500:18:294200:02:024900:45:314200:00:546800:22:18 01:29:11 
7810334MDavid FosterMcLean VA 4400:13:1111500:02:3612500:48:2111300:01:0912400:24:04 01:29:19 
7948543MMatt BarbourWinchester VA 5300:13:2717200:03:0910400:47:348900:01:0413000:24:08 01:29:20 
8065247MDan ScheblerChantilly VA 10600:14:5011100:02:355400:45:5120700:01:3015500:24:38 01:29:22 
8144719MAustin KendallOak Hill VA 13800:15:2516500:03:0515700:49:319000:01:042200:20:32 01:29:35 
8264827MDavid ColmanArlington VA 21900:17:3624600:04:038200:46:566400:00:591500:20:03 01:29:35 
8336957MPete CraymerHickory NC 13000:15:203900:02:0111400:48:017800:01:0210300:23:17 01:29:38 
8440638MCharles ShedrickArlington VA 13300:15:2314200:02:537600:46:4713400:01:1311000:23:30 01:29:44 
8539436MJeff HansenRuckersville VA 5100:13:1615500:03:0112700:48:263000:00:5113700:24:18 01:29:49 
8653052MTim SchneiderLouisa VA 9600:14:275000:02:058100:46:5516000:01:1917000:25:06 01:29:50 
8712348MDavid ZemoCulpeper VA 9800:14:3110600:02:325900:46:027900:01:0220000:25:51 01:29:55 
889150MDaniel BarronRuther Glen VA 19400:16:377300:02:205300:45:467500:01:0113400:24:15 01:29:57 
8940246MBen HaleSterling VA 10400:14:4522300:03:452900:44:1525100:01:4718900:25:39 01:30:10 
908520MJosh MeltzerRockville MD 9700:14:3018900:03:228500:47:0220600:01:2911600:23:51 01:30:12 
9117827MJared KuhmerkerRichmond, Va VA 4900:13:1514600:02:5614100:48:5913200:01:1311900:23:52 01:30:13 
9226032MRoger CusterOakton VA 9000:14:1612100:02:408700:47:113600:00:5318200:25:20 01:30:17 
PlaceBibAgSNAMEcity/stateDQRankSWIMRankT1RankBikeRankT2RankRUNPENALTYTIMEDQ
9320036MArnel AlverioHaymarket VA 7100:13:5112000:02:4011300:48:0016700:01:2014800:24:28 01:30:18 
9451550MStephen O'DonnellWashington DC 16000:15:5811700:02:3913300:48:364400:00:546700:22:13 01:30:19 
9563944MCarlos RodriguezWheaton MD 10500:14:503300:01:5714600:49:0914100:01:1510200:23:15 01:30:25 
963133MJohn MatlockArlington VA 12700:15:189400:02:288600:47:0519600:01:2613300:24:09 01:30:25 
9717228MJohn MileyArlington VA 15200:15:4924400:04:0213700:48:501800:00:433000:21:04 01:30:26 
9838958MDaniel TrimbachNew York NY 4800:13:1414500:02:566800:46:2323600:01:3921400:26:23 01:30:34 
9950741MChristopher BrownBroad Run VA 2200:12:1415000:02:599600:47:2210400:01:0722400:27:00 01:30:39 
10055538MAaron LaroseAlexandria VA 20000:16:4511000:02:347300:46:4511700:01:1011200:23:32 01:30:43 
10165432MJustin MarshallArlington VA 20800:16:5710400:02:3117500:50:185600:00:581400:20:02 01:30:45 
10258522MJames StraneIrwin PA 16600:16:143700:02:0014500:49:084500:00:547400:22:31 01:30:46 
10350159MDennis BarrRidge MD 18200:16:293600:01:596100:46:055800:00:5818000:25:18 01:30:48 
10455234MJuan Camilo EcheverriWashington DC 22900:17:5915600:03:016200:46:0518900:01:247200:22:26 01:30:53 
1056631MBrian CookArlington VA 7800:14:0220500:03:3317700:50:2219300:01:244600:21:34 01:30:54 
10628849MMichael OconnorArlington VA 8800:14:1416400:03:0413400:48:4113500:01:1411800:23:52 01:31:02 
10770517MJonathan HawkinsSpotsylvania VA 18400:16:30700:01:257800:46:50200:00:3419900:25:49 01:31:06 
10814829MRyan HoffmanReston VA 6300:13:4017700:03:1515800:49:3118700:01:2310600:23:21 01:31:09 
10918744MThomas WilliamsWashington DC 600:11:0811600:02:3918000:50:2514200:01:1519500:25:43 01:31:10 
11010950MJohn ThomasNorfolk VA 19600:16:3814800:02:567700:46:4916300:01:2011100:23:30 01:31:11 
11141446MMark ThalmanBethesda MD 10000:14:3221300:03:387900:46:5220100:01:2716400:24:51 01:31:19 
11251055MJames JeremiahFairfax VA 5800:13:364900:02:0420400:52:0015400:01:187100:22:24 01:31:20 
11320414MJack KnibbWashington DC 3100:12:3610100:02:3121600:52:4810900:01:097000:22:21 01:31:22 
11443342MMike DesmondReston VA 14800:15:4415100:03:0015600:49:2419000:01:245500:21:58 01:31:26 
11523841MDaniel CuvielloFairfax VA 3600:12:4813600:02:4914300:49:0222400:01:3517900:25:18 01:31:31 
1169845MCharles BarnesVienna VA 23700:18:1018000:03:159800:47:2511200:01:094700:21:36 01:31:33 
11744646MCharles KendallOak Hill VA 12000:15:0521000:03:367000:46:2616500:01:2017700:25:15 01:31:40 
11841631MAlec RubensteinKensington MD 16200:16:049000:02:2713500:48:4416900:01:219900:23:12 01:31:46 
11920131MAllen WuFairfax VA 8700:14:1123100:03:4911000:47:5023500:01:3816000:24:48 01:32:14 
12034549MMark EsperFairfax Station VA 12300:15:0716900:03:0613100:48:3331000:02:488500:22:45 01:32:16 
12124128MMichael OwensWashington DC 5700:13:358700:02:2621300:52:302200:00:459600:23:07 01:32:21 
12250541MMatthew SchwabelCary NC 23200:18:0418800:03:2210900:47:4710200:01:076100:22:07 01:32:24 
12312963MBrad MetcalfRichmond VA 14500:15:426600:02:1512800:48:2724200:01:4114600:24:26 01:32:27 
PlaceBibAgSNAMEcity/stateDQRankSWIMRankT1RankBikeRankT2RankRUNPENALTYTIMEDQ
12424826MChris BoscoVienna VA 1100:11:454300:02:0223000:53:2011400:01:0914100:24:21 01:32:36 
12545943MPaul MartinezSpringfield VA 23300:18:076500:02:1411200:47:5421600:01:339300:23:03 01:32:49 
12625630MGreg MowlesAlexandria VA 5500:13:3015300:03:0018200:50:275700:00:5816800:25:01 01:32:55 
12764054MJoe DemarestWashington Dc DC 11400:15:0224100:04:009200:47:1817600:01:2218300:25:23 01:33:03 
12837443MJason CohenFredericksburg VA 17000:16:197000:02:1814000:48:5620200:01:2812600:24:06 01:33:05 
12931156MBen FoyMurrysville PA 19500:16:3813500:02:4910100:47:3113300:01:1316900:25:02 01:33:10 
13063647MTodd SmithLorton VA 4300:13:1014700:02:5618300:50:3219800:01:2617200:25:08 01:33:10 
13155130MWilliam KirchnerFairfax VA 8400:14:0918500:03:2112300:48:1620500:01:2920400:26:00 01:33:12 
13232433MChristopher CatalanoArlington VA 13900:15:2710300:02:319000:47:1729500:02:2019200:25:41 01:33:15 
13322236MShane McElroyArlington VA 3800:12:5419400:03:2615400:49:1917900:01:2320900:26:15 01:33:15 
13450448MWil RigginsAlexandria VA 26000:19:213000:01:5315100:49:1321800:01:344400:21:27 01:33:26 
13557633MKyle CavanaughWashington DC 1900:12:058200:02:2422100:53:0324800:01:4513600:24:17 01:33:33 
1367428MJohn KofmehlWashington DC 17500:16:2423500:03:517500:46:4725200:01:4815900:24:48 01:33:36 
13741735MJohn WalshWoodbridge VA 22000:17:3613200:02:4610200:47:3222900:01:3613200:24:09 01:33:38 
13868934MAbhaya MenonArlington VA 25700:19:1720200:03:3315900:49:328100:01:031700:20:16 01:33:39 
13971045MEric EldridgeCentreville VA 18600:16:311600:01:4415000:49:1319500:01:2616300:24:50 01:33:42 
14022930MBrad SmithWilliamsburg VA 8300:14:095400:02:0820300:52:003200:00:5215400:24:36 01:33:42 
14122350MFred WeberFrederick MD 16900:16:178400:02:2513000:48:2822200:01:3417100:25:08 01:33:51 
14249935MAldo AguirreWilliamsburg VA 23100:18:045900:02:1116700:49:5912500:01:117300:22:28 01:33:52 
14365535MMike NockunasArlington VA 13200:15:2221100:03:379500:47:2115300:01:1821200:26:22 01:33:57 
14422660MBarry DiciccoOakton VA 14000:15:354000:02:0110800:47:4512400:01:1123900:27:31 01:34:00 
1451133MTimmothy McShaneColumbia MD 15600:15:5115200:03:0011900:48:0615700:01:1920600:26:06 01:34:19 
14654451MIra SchulmanCharlottesville VA 21100:17:059300:02:2810500:47:343400:00:5221500:26:26 01:34:23 
14763746MDavid McCreadyArlington VA 10700:14:5019300:03:2419500:51:157300:01:0112000:23:55 01:34:25 
1481842MDavid KarasikRockville MD 20100:16:4714000:02:5212000:48:1114500:01:1718100:25:19 01:34:25 
14936436MCarl FrankenfieldPortsmouth VA 9100:14:1616800:03:0611500:48:0123000:01:3723700:27:30 01:34:27 
15016136MJuan TorresWoodbridge VA 6000:13:3714900:02:5818600:50:4117400:01:2120200:25:54 01:34:29 
15162830MCesar VenceWashington DC 16800:16:1615800:03:0216300:49:469900:01:0614500:24:24 01:34:31 
15221564MJohn TanseyWilliamsburg VA 21000:16:588900:02:276300:46:0518800:01:2324100:27:41 01:34:33 
15331645MTimothy LoomisNewport News VA 22500:17:4424300:04:026700:46:1928200:02:0415300:24:35 01:34:42 
15453952MLeighton QuickHamilton VA 11200:14:5917900:03:1517400:50:1429900:02:2612200:23:57 01:34:50 
PlaceBibAgSNAMEcity/stateDQRankSWIMRankT1RankBikeRankT2RankRUNPENALTYTIMEDQ
15542637MChristopher OlsenArlington VA 20600:16:5424200:04:0116600:49:5914700:01:178000:22:41 01:34:50 
15652555MMark RyanManassas VA 11000:14:5726500:04:1912100:48:134600:00:5421800:26:30 01:34:52 
15754132MJoe AltomareHampton VA 23000:18:0110900:02:342600:44:016600:01:0027200:29:22 01:34:56 
15826626MBilly CulletonArlington VA 13500:15:2411800:02:4011600:48:0320000:01:2723600:27:29 01:35:01 
15931545MJames RosenRichmond VA 6400:13:4120100:03:3222800:53:1022500:01:359800:23:11 01:35:07 
1607255MScott DawleyCulpeper VA 16700:16:1618600:03:2115200:49:136000:00:5818500:25:29 01:35:15 
16145233MToby BirdsellLorton VA 12800:15:1922900:03:4917100:50:0928600:02:0912100:23:55 01:35:18 
16246143MSean WelbornLorton VA 3700:12:5118300:03:1924400:54:0517500:01:2211400:23:46 01:35:21 
16322150MDennis MyersChesapeake VA 15900:15:5420900:03:3515300:49:1723100:01:3717800:25:17 01:35:38 
16432759MCharlie WatkinsNorfolk VA 2900:12:3018700:03:2119200:51:0324900:01:4522800:27:10 01:35:47 
16523553MDonald KnutsonLeesburg VA 4500:13:1126000:04:1716400:49:5024300:01:4222000:26:50 01:35:48 
16620330MLing ChenCentreville VA 20400:16:5113000:02:459300:47:1928000:02:0322200:26:55 01:35:51 
16762927MChris MandellFredericksburg VA 22400:17:4122800:03:4820800:52:02900:00:395100:21:46 01:35:54 
16867937MRedha MorsliWashington DC 21400:17:1712500:02:4119800:51:4312900:01:1210900:23:25 01:36:17 
16959832MRobert RegerSpringfield VA 20900:16:5810500:02:3210600:47:4113900:01:1524800:27:59 01:36:22 
17012234MJustin JacobsThe Plains VA 15300:15:4919500:03:2716200:49:4425500:01:4918700:25:37 01:36:23 
1711354MAl NavidiRockville MD 28300:20:4315400:03:008900:47:1712300:01:1014200:24:22 01:36:30 
17234843MAndrew EstAshburn VA 25400:18:5814300:02:5317600:50:209400:01:0510500:23:20 01:36:36 
17356626MJeffrey McIntyreOakton VA 15800:15:536200:02:1321000:52:216800:01:0017600:25:14 01:36:38 
17431940MScott SmithVienna VA 18300:16:2918400:03:1922700:53:1024500:01:435600:22:00 01:36:40 
1756563MDavid ConoverGreat Falls VA 14200:15:386700:02:1517900:50:2416800:01:2022700:27:08 01:36:44 
17618236MWilliam OverAshburn VA 18800:16:3113800:02:5118400:50:3617700:01:2219100:25:41 01:36:59 
1771552MKenneth PearceMechanicsville VA 12100:15:0612400:02:4117800:50:2424600:01:4422600:27:07 01:37:00 
17836552MAlan ArrudaWilliamsburg VA 11500:15:0223700:03:589900:47:2825400:01:4826700:28:54 01:37:08 
17967036MRichard SmithAlexandria VA 20700:16:5425700:04:1417000:50:0721700:01:3414300:24:22 01:37:10 
18041532MBen KostrzewaArlington VA 18700:16:3120600:03:33    4800:21:40 01:37:21 
18140833MKang HuAlexandria VA 25100:18:5114400:02:5311700:48:0417800:01:2321300:26:23 01:37:32 
18220525MKyle SuibAlexandria VA 23900:18:1218200:03:1619300:51:091700:00:4314000:24:20 01:37:39 
18360632MSteven CunninghamArlington VA 23500:18:0819000:03:2220700:52:0116600:01:209400:23:04 01:37:53 
1848637MBrad BuzbyNewburg MD 22100:17:3720800:03:3510300:47:3315800:01:1924900:28:05 01:38:06 
18536733MJp HylandWashington DC 15000:15:4430800:05:0817300:50:1329600:02:2516100:24:49 01:38:17 
PlaceBibAgSNAMEcity/stateDQRankSWIMRankT1RankBikeRankT2RankRUNPENALTYTIMEDQ
18611731MAlun OliverLeonardtown MD 22200:17:3824700:04:0423100:53:2513700:01:146300:22:07 01:38:26 
18710533MNic WardClarksburg MD 17200:16:2017400:03:1324800:54:2211100:01:0910700:23:24 01:38:26 
18815431MJohn LiuReston VA 24300:18:258800:02:2712400:48:1827200:01:5923400:27:26 01:38:33 
18954645MDavid HurleyVienna VA 13600:15:2422400:03:4519900:51:4717100:01:2121100:26:21 01:38:36 
19068524MCaleb WilbanksWoodbridge VA 22800:17:5112200:02:4021200:52:2718500:01:2313500:24:17 01:38:37 
19156154MCraig PetersonGambrills MD 10300:14:4212600:02:4316100:49:3719700:01:2627700:30:16 01:38:42 
1924736MJason StroupAlexandria VA 22600:17:468600:02:2618800:50:4626800:01:5720100:25:51 01:38:43 
19363227MChad BartlettGaithersburg MD 12400:15:0827400:04:3016000:49:3621200:01:3225100:28:08 01:38:52 
19428628MJohn BarnhardtWashington DC 27600:20:0812800:02:4416900:50:0526100:01:5112700:24:06 01:38:53 
19539848MAaron GoldFalls Church VA 3200:12:3627100:04:2523700:53:3525800:01:5021700:26:30 01:38:54 
19622037MJason MorganChesterfield VA 17600:16:2427000:04:2421400:52:3320900:01:3012800:24:07 01:38:57 
19767441MDaniel ZweersAlexandria VA 10800:14:5326600:04:2019100:50:5932300:03:1918800:25:38 01:39:07 
19868726MStephen DortonKing George VA 27400:20:0317000:03:0919600:51:2227000:01:578600:22:45 01:39:15 
19933918MMike BrockmeyerHampstead MD 17400:16:2120400:03:3327600:56:5712200:01:103500:21:17 01:39:16 
20035532MEarl BiglowWashington DC 20500:16:5424800:04:0424200:53:5821900:01:349200:22:52 01:39:20 
20125747MNeal MetzendorfOakton VA 21800:17:3126700:04:2214400:49:0518200:01:2322900:27:10 01:39:29 
20247960MRod DevarAlexandria VA 29200:21:1125900:04:1617200:50:10800:00:3910800:23:24 01:39:38 
20352649MKevin MahoneyWaldorf MD 25300:18:5621800:03:4016500:49:5523200:01:3719000:25:39 01:39:47 
20438732MPeter LubranoWilliamsburg VA 11600:15:0320300:03:3324700:54:1715900:01:1919600:25:46 01:39:56 
205637MPatrick WebbManassas VA 9500:14:2517500:03:1324900:54:252300:00:4623100:27:11 01:39:59 
20617626MMichael SnowdenStafford VA 29300:21:2116600:03:0514900:49:1221000:01:3016600:24:58 01:40:03 
20718545MKarsten SchwarzBassenheim, Germany XX 20300:16:5111200:02:3521100:52:216900:01:0023300:27:22 01:40:06 
20845646MEdward BurgCulpeper VA 11300:15:0122600:03:4611800:48:0426200:01:5229600:31:39 01:40:20 
20935837MSean ObrienArlington VA 21700:17:2922100:03:4222200:53:0415000:01:1816500:24:56 01:40:26 
21019546MOliver PottsArlington VA 26600:19:3819900:03:3020500:52:008600:01:0413800:24:19 01:40:29 
21129843MPhilip MannWashington DC 26300:19:3412300:02:4018100:50:2613000:01:1221900:26:43 01:40:34 
21252129MMichael McCarrollGaithersburg MD 19700:16:4032800:06:3922900:53:1528500:02:075700:22:00 01:40:40 
21332918MBrendan CarrEllicott City MD 8500:14:1028100:04:3531001:00:486700:01:001900:20:17 01:40:47 
21434228MGreg BellVirginia Beach VA 24800:18:417600:02:2218500:50:3713600:01:1424500:27:55 01:40:47 
21557045MPaul NovakApex NC 19900:16:4221500:03:4012900:48:2723800:01:4027800:30:22 01:40:48 
21661946MTim RohrbaughHaywood VA 24100:18:169900:02:3015500:49:2123300:01:3827000:29:10 01:40:52 
PlaceBibAgSNAMEcity/stateDQRankSWIMRankT1RankBikeRankT2RankRUNPENALTYTIMEDQ
21715828MDaniel DavisArlington VA 23600:18:0918100:03:1522300:53:047200:01:0019300:25:42 01:41:09 
21835032MHugh ConwayChesapeake VA 12200:15:0619700:03:2828100:57:2711000:01:0913100:24:09 01:41:16 
21952349MMatthew BaraziaVienna VA 29900:22:1120000:03:3214800:49:1126000:01:5115800:24:44 01:41:27 
22025072MJames ChapmanLovettsville VA 21200:17:0719800:03:2819000:50:5530100:02:3123800:27:30 01:41:29 
22163349MKylor WhitakerHaymarket VA 27700:20:1216700:03:0514700:49:1116400:01:2024200:27:43 01:41:30 
22248925MDan WurtzelRockville MD 14600:15:4327200:04:2523900:53:4224100:01:4120800:26:07 01:41:36 
22344529MMike EnricoWhite Plains MD 24400:18:2511300:02:3528200:57:3415500:01:195800:22:03 01:41:53 
22429755MDouglas WattGaithersburg MD 16100:16:0128500:04:3923400:53:2928700:02:1019800:25:49 01:42:06 
22536040MSean HuberKing George VA 8600:14:1030100:04:5927400:56:3729000:02:1415100:24:33 01:42:32 
22663131MWilliam BensonFredericksburg VA 10900:14:5325400:04:1021800:52:5527700:02:0226900:28:59 01:42:58 
2272550MGlenn ByrdWoodbine MD 18500:16:3029500:04:4820000:51:4922300:01:3525900:28:28 01:43:08 
22841229MJason KingTakoma Park MD 25500:19:0830700:05:0820100:51:5232100:03:1712300:24:00 01:43:22 
22953343MRaymond CruzAlexandria VA 29700:21:4523000:03:4913600:48:4927900:02:0322300:26:59 01:43:23 
23042137MIvan IversonHaymarket VA 18900:16:3121700:03:4025400:54:4212100:01:1025000:28:05 01:44:07 
23156323MAndrew FriskArlington VA 16500:16:0921200:03:3729300:59:142400:00:4715600:24:39 01:44:25 
23215934MAndrew NguyenArlington VA 21600:17:273800:02:0123300:53:273100:00:5128300:30:41 01:44:25 
23331869MDavid GearinArlington VA 25000:18:5024000:04:0013800:48:5030700:02:4127600:30:07 01:44:28 
23449651MCharlie PennFredericksburg VA 26100:19:2326400:04:1925500:54:4622800:01:3614700:24:26 01:44:28 
23563843MMichael WeberVirginia Beach VA 11800:15:0323300:03:5025600:54:5228400:02:0526200:28:40 01:44:29 
23649232MKevin DillonChesapeake VA 29100:21:1029800:04:5618700:50:4130400:02:3717300:25:09 01:44:31 
23758722MTynan KavanaughAliso Viejo CA 26500:19:3616300:03:0428900:58:291300:00:408700:22:45 01:44:33 
23816839MMike ZaettaArlington VA 14100:15:3816200:03:0320600:52:0130500:02:3829400:31:17 01:44:34 
23940445MBert ForemanGlen Allen VA 11100:14:5815700:03:0124500:54:0723400:01:3828800:30:54 01:44:36 
24069043MDavid LeeFairfax VA 27900:20:3025100:04:0523500:53:3027800:02:0215700:24:42 01:44:48 
24111456MDoug RiceClifton VA 14400:15:4127300:04:2625200:54:3325700:01:5026100:28:31 01:44:58 
24217555MDavid CooperAshburn VA 27100:19:5417300:03:1024300:53:5812700:01:1222100:26:53 01:45:05 
24347846MKevin SieversWoodbridge VA 19800:16:4023800:03:5826700:56:0532200:03:1817400:25:10 01:45:10 
24468333MBenjamin DalleyWashington DC 15400:15:5025800:04:1625800:55:1430600:02:3923200:27:17 01:45:14 
24552813MBrandon BaumgartnerAlexandria VA 17100:16:1919200:03:2328700:58:1522000:01:3420300:25:56 01:45:25 
24613439MMichael BakerGreencastle PA 24900:18:4225300:04:0921700:52:5122600:01:3526400:28:45 01:46:00 
24730748MMatt HasslerKing George VA 29400:21:2428600:04:3916800:50:0130000:02:2924000:27:34 01:46:05 
PlaceBibAgSNAMEcity/stateDQRankSWIMRankT1RankBikeRankT2RankRUNPENALTYTIMEDQ
24861134MGuido AsbunBurke VA 31100:23:2511900:02:4022400:53:0517300:01:2119700:25:46 01:46:15 
2493943MRich SchellhammerLynnfield MA 17300:16:2115900:03:0225000:54:2819400:01:2629300:31:16 01:46:31 
25033019MAlex GenuarioMount Airy MD 28500:20:4727600:04:3230901:00:4210300:01:071600:20:03 01:47:09 
25167543MDavid DavisSterling VA 30800:22:5431400:05:3522500:53:089300:01:0514900:24:30 01:47:10 
2527838MWilliam LaingBristow VA 31500:24:0223900:04:0024600:54:1015600:01:1911300:23:45 01:47:14 
25323232MMatthew OwenAlexandria VA 27200:19:5829600:04:5326300:55:2819200:01:2421000:26:17 01:47:58 
25427828MBen TurnerWashington DC 19100:16:3330900:05:1429800:59:4728100:02:0315000:24:30 01:48:05 
25518667MRick RiceBurke VA 25600:19:1026900:04:2425300:54:4016200:01:2026300:28:41 01:48:12 
25629950MBruce CormackArlington VA 3900:12:5627800:04:3326000:55:2120800:01:3031200:33:56 01:48:14 
25719151MDavid NatoliArlington VA            01:48:46 
25835735MChristopher DailyGainesville VA 23800:18:1229400:04:4627900:57:0924000:01:4123000:27:11 01:48:57 
25912738MVladislav GavriletsFairfax VA 20200:16:4925000:04:0528400:57:4429700:02:2525400:28:22 01:49:23 
26019947MMark NorrisMcLean VA 25800:19:1729900:04:5723800:53:3932400:03:2125200:28:16 01:49:27 
26168831MTravis MestBristow VA 28200:20:4026300:04:1823600:53:3227600:02:0227100:29:10 01:49:40 
26211849MDonald CronceFredericksburg VA 31300:23:5724500:04:0322600:53:095100:00:5724300:27:46 01:49:49 
26367745MJeff NotzManassas VA 18000:16:2921600:03:4029100:58:3918600:01:2327400:29:43 01:49:52 
26471148MNicolas NouvelSpringfield VA 6500:13:41600:01:2226100:55:282800:00:4932900:38:50 01:50:07 
2658263MRaymond KannapellCharlottesville VA 18100:16:29         01:50:50 
26614736MBen GlonSpringfield VA 28100:20:3722500:03:4629000:58:3621300:01:3321600:26:26 01:50:56 
26743432MJosh Soiz  30400:22:4331000:05:1426200:55:2825600:01:4920500:26:02 01:51:14 
26828447MJohn HannanGermantown MD 23400:18:0728700:04:4025700:55:0231200:02:5128400:30:47 01:51:25 
26954232MAndrew ChurchWashington DC 33400:31:1819600:03:2719400:51:159600:01:0514400:24:22 01:51:26 
2703528MPaul HoweWashington DC 26900:19:5231200:05:1622000:53:0231100:02:4928200:30:38 01:51:34 
27137137MMike NewtonHollywood MD 16300:16:0517600:03:1427500:56:4011600:01:1031600:34:37 01:51:43 
27261741MTimothy O'ConnellKensington MD 25200:18:5220700:03:3518900:50:4810700:01:0832600:37:35 01:51:55 
27356551MKevin GeorgeHuntingtown MD 32100:25:0219100:03:2323200:53:2519900:01:2726500:28:49 01:52:03 
2749438MDion DavitianFairfax VA 31700:24:17100:00:0027000:56:1726700:01:5527300:29:36 01:52:04 
27564531MTodd BootheChandler AZ 19000:16:3230300:05:0131201:01:2428900:02:1122500:27:02 01:52:09 
2765752MDave MiddletonAshburn VA 27300:20:0229000:04:4527200:56:2730300:02:3425800:28:28 01:52:14 
27711060MRichard TobinSanta Barbara CA 30100:22:3222700:03:4627100:56:2423700:01:4024400:27:54 01:52:14 
27862532MJb RossonHarrisonburg VA 30500:22:4617800:03:1520900:52:0915200:01:1830600:33:17 01:52:43 
PlaceBibAgSNAMEcity/stateDQRankSWIMRankT1RankBikeRankT2RankRUNPENALTYTIMEDQ
27934345MDan GoldfarbBurke VA 6200:13:3931800:05:4628600:58:0431800:03:0630000:32:29 01:53:01 
28039656MDavid RoederHyattsville MD            01:53:25 
28155960MJr WoolleyWoodbridge VA 26400:19:3632300:06:1226800:56:0732000:03:1025500:28:24 01:53:27 
28258354MTerry BashamDumfries VA 17700:16:247200:02:2030301:00:1821400:01:3328900:30:5500:02:0001:53:28 
28368028MJonathan HatleeArlington VA 22300:17:4126200:04:1831101:01:0627100:01:5825700:28:28 01:53:28 
2842744MRobert MillerChester VA 29000:21:0927700:04:3221500:52:3727500:02:0130500:33:15 01:53:33 
28561255MRichard DumeneBarboursville VA 24000:18:1330200:05:0119700:51:3030900:02:4532000:36:27 01:53:55 
28671239MMichael VasquezArlington VA 19300:16:35900:01:3330501:00:20700:00:3931800:34:54 01:53:59 
28761854MDwight WolfNewport News VA 30700:22:5013400:02:4921900:53:0215100:01:1831300:34:11 01:54:08 
28818333MJoseph PerezWashington DC 32000:24:5323400:03:5029200:59:142600:00:4818400:25:25 01:54:09 
28956851MRandy FinkHuntingtown MD 11700:15:0331300:05:2328000:57:1729100:02:1625300:28:1700:06:0001:54:14 
29039344MPhil PalmisanoMartinsburg WV 29500:21:2727500:04:3126900:56:1422700:01:3528500:30:48 01:54:32 
29149828MDouglas ForbesCockeysville MD 24600:18:3532600:06:2627800:57:0427400:02:0129100:31:02 01:55:06 
29270922MCasey CagleFork Union VA 26200:19:241800:01:4531801:02:331000:00:3928600:30:48 01:55:08 
29357946MBurton MasonStafford VA 27500:20:0430000:04:5728500:58:0022100:01:3428000:30:35 01:55:08 
2946849MAndrew BaillieNokesville VA 32200:25:5125200:04:0826500:55:3419100:01:2426000:28:28 01:55:23 
2959950MDaniel BragunierPort Tobacco MD 30600:22:4929100:04:4528300:57:3729800:02:2624600:27:56 01:55:31 
29621035MLuis-Ernesto ClavijoAlexandria VA 32600:27:2730500:05:0525100:54:3230200:02:3316700:24:5900:02:0001:56:35 
29738347MDavid SimmsArlington VA 31000:23:2026800:04:2226400:55:3125000:01:4629800:32:05 01:57:02 
29840337MCraig HirokawaFredericksburg VA 33200:30:1330400:05:0327300:56:3514900:01:1815200:24:33 01:57:40 
29918957MPaul FosterLaytonsville MD 33100:29:2723600:03:5524100:53:4429400:02:1925600:28:26 01:57:50 
30059726MBrendan MarkhamArlington VA 28600:20:5428300:04:3727700:57:0229200:02:1730700:33:19 01:58:06 
30154944MChris GreenColumbia MD 31200:23:4528000:04:3425900:55:1726600:01:5530900:33:34 01:59:02 
30267131MDaniel HuntleyFredericksburg VA 24700:18:4029700:04:5530101:00:0432900:03:5629700:31:50 01:59:22 
30319345MMatt WoodmanManassas VA 31900:24:5029300:04:4631401:01:4711800:01:1023500:27:28 02:00:00 
30438233MRandolph FeltnerColonial Beach VA 33000:29:2327900:04:3320200:51:5323900:01:4030200:32:38 02:00:07 
3057352MGlenn LawArlington VA 30000:22:32200:00:0032001:02:5931300:02:5229900:32:22 02:00:44 
30667632MMatt NovarrWashington DC 31800:24:2628200:04:3530201:00:1527300:01:5927500:29:59 02:01:14 
30726862MAlonzo CrittendenHampton VA 27000:19:5324900:04:0424000:53:4231700:03:0533300:40:50 02:01:31 
30871335MKevin TakeguchiArlington VA 21300:17:0932000:05:5029500:59:263700:00:5332800:38:21 02:01:36 
30955644MBill McNultyVienna VA 25900:19:1832200:06:0632501:04:2320400:01:2927900:30:29 02:01:42 
PlaceBibAgSNAMEcity/stateDQRankSWIMRankT1RankBikeRankT2RankRUNPENALTYTIMEDQ
31068637MKevin BlumenthalWashington DC 27800:20:2132100:05:5028800:58:2833100:04:0730400:33:03 02:01:48 
31142231MThomas SpragueFalls Church VA 28700:21:0628800:04:4232601:04:4810600:01:0828700:30:49 02:02:31 
31260149MMiro LehkyCentreville VA 28400:20:4622000:03:4131901:02:4426500:01:5431000:33:50 02:02:53 
3132945MRobert O'BraitisAshburn VA 26700:19:4926100:04:1732201:03:4218000:01:2331500:34:14 02:03:23 
3147634MDaniel WilliamsLeesburg VA 24200:18:2032700:06:3632301:03:4510000:01:0631100:33:50 02:03:37 
31513772MSkip HartquistWashington DC 28900:21:0831600:05:4231501:02:0121500:01:3330800:33:23 02:03:46 
31625858MJay WilkinsSpotsylvania VA 30200:22:33      29200:31:09 02:03:56 
31751653MEdwin Wright Jr.Montclair VA 28000:20:3328400:04:3830401:00:1831500:02:5931900:35:37 02:04:04 
31859230MMauricio RamirezAlexandria VA 32900:29:1721900:03:4130701:00:3325900:01:5026600:28:52 02:04:12 
31926957MMichael HillFairfax VA 32400:26:3631700:05:4429400:59:1831400:02:5229000:31:01 02:05:29 
32062739MBert CordermanFairfax VA 26800:19:5032500:06:2229700:59:4631600:03:0332100:36:33 02:05:32 
32133532MNathan KazaitisWashington DC 32700:28:0833000:07:0026600:55:4133300:04:2730100:32:29 02:07:44 
32262631MTimothy ErdahlGainesville VA 31600:24:15300:00:0031601:02:0633000:03:5732500:37:32 02:07:48 
3233639MJoseph WestmorelandCentreville VA 19200:16:3432400:06:1530801:00:3832700:03:3433400:41:36 02:08:35 
32413831MJohn BigatelRockville MD 32500:26:5428900:04:4431301:01:459200:01:0531400:34:14 02:08:39 
32547651MJoe CroghanHerndon VA 30300:22:3533300:08:1931701:02:1832800:03:5429500:31:38 02:08:42 
32669129MJonathan CetranoWashington DC 31400:24:0129200:04:4529600:59:4324700:01:4533100:39:10 02:09:22 
32768127MNicholas GouldWashington, Dc DC            02:09:23 
3288764MBill WaltonWashington VA 29600:21:4432900:06:4529900:59:4832500:03:2632700:37:52 02:09:33 
32970656MCliff HamalVienna VA 13100:15:212700:01:5133301:26:326500:01:0018600:25:36 02:10:17 
33023627MChris BlankenshipWashington DC 32800:28:1031500:05:3530000:59:5326300:01:5231700:34:50 02:10:18 
33123935MKerry OldfieldLeesburg VA 33300:30:4033100:07:2230601:00:2829300:02:1828100:30:35 02:11:21 
33237770MBill GoodingMontclair VA            02:12:10 
33332351MGary HartmannGermantown MD 3400:12:4533200:07:4132801:09:3033200:04:1333000:39:07 02:13:14 
33468436MKevin BradleyFairfax VA 33600:34:4921400:03:3832401:04:0312600:01:1230300:33:01 02:16:41 
33550941MPeyam MojallalAshburn VA 33800:40:3131900:05:4732101:03:1432600:03:3026800:28:58 02:21:58 
33653742MTucker BallWashington DC 32300:26:1633500:10:1332701:06:2931900:03:1032200:36:34 02:22:40 
33721753MJoe SkajaYorktown VA 28800:21:0633400:09:1233101:14:3126400:01:5332400:37:31 02:24:11 
33863556MWilliam TheobaldWashington DC 33500:31:2830600:05:0632901:09:4030800:02:4433500:45:52 02:34:48 
33924033MScott GrossmanChicago IL 30900:23:0033600:21:4933001:11:0025300:01:4832300:37:30 02:35:05 
34016740MThao NguyenWoodbridge VA 33900:44:1931100:05:1533201:19:2514400:01:1633200:39:32 02:49:44 

** Results are for the private use of participants and are the Intellectual Property of Set Up Events. Unauthorized use of these results is prohibited.